sensor_id;sensor_type;location;lat;lon;timestamp;pressure;altitude;pressure_sealevel;temperature;humidity
11692;BME280;33659;42.672;23.354;2022-09-09T00:01:43;94604.69;;;20.97;63.43
11692;BME280;33659;42.672;23.354;2022-09-09T00:04:17;94608.91;;;20.87;63.64
11692;BME280;33659;42.672;23.354;2022-09-09T00:06:55;94611.19;;;20.89;63.77
11692;BME280;33659;42.672;23.354;2022-09-09T00:09:28;94610.34;;;20.99;63.75
11692;BME280;33659;42.672;23.354;2022-09-09T00:12:00;94597.03;;;21.13;63.45
11692;BME280;33659;42.672;23.354;2022-09-09T00:14:35;94605.31;;;21.22;62.96
11692;BME280;33659;42.672;23.354;2022-09-09T00:17:07;94602.22;;;21.31;62.02
11692;BME280;33659;42.672;23.354;2022-09-09T00:19:39;94609.03;;;21.35;62.16
11692;BME280;33659;42.672;23.354;2022-09-09T00:22:15;94601.09;;;21.32;62.50
11692;BME280;33659;42.672;23.354;2022-09-09T00:24:46;94593.50;;;21.34;62.38
11692;BME280;33659;42.672;23.354;2022-09-09T00:27:19;94569.59;;;21.27;62.53
11692;BME280;33659;42.672;23.354;2022-09-09T00:29:53;94571.03;;;21.42;62.18
11692;BME280;33659;42.672;23.354;2022-09-09T00:32:20;94577.84;;;21.43;62.00
11692;BME280;33659;42.672;23.354;2022-09-09T00:34:49;94576.69;;;21.44;62.28
11692;BME280;33659;42.672;23.354;2022-09-09T00:37:19;94574.56;;;21.28;62.78
11692;BME280;33659;42.672;23.354;2022-09-09T00:39:49;94579.19;;;21.10;62.85
11692;BME280;33659;42.672;23.354;2022-09-09T00:42:20;94571.72;;;20.91;63.19
11692;BME280;33659;42.672;23.354;2022-09-09T00:44:53;94561.19;;;20.73;63.48
11692;BME280;33659;42.672;23.354;2022-09-09T00:47:39;94556.34;;;20.53;64.46
11692;BME280;33659;42.672;23.354;2022-09-09T00:50:16;94568.88;;;20.46;64.72
11692;BME280;33659;42.672;23.354;2022-09-09T00:52:47;94572.66;;;20.41;64.88
11692;BME280;33659;42.672;23.354;2022-09-09T00:55:26;94565.84;;;20.44;65.33
11692;BME280;33659;42.672;23.354;2022-09-09T00:57:54;94571.16;;;20.51;64.82
11692;BME280;33659;42.672;23.354;2022-09-09T01:00:23;94566.59;;;20.55;64.79
11692;BME280;33659;42.672;23.354;2022-09-09T01:02:56;94560.88;;;20.60;64.81
11692;BME280;33659;42.672;23.354;2022-09-09T01:05:34;94563.50;;;20.64;64.69
11692;BME280;33659;42.672;23.354;2022-09-09T01:08:05;94563.47;;;20.71;64.61
11692;BME280;33659;42.672;23.354;2022-09-09T01:10:43;94559.63;;;20.82;64.12
11692;BME280;33659;42.672;23.354;2022-09-09T01:13:19;94563.00;;;20.90;63.70
11692;BME280;33659;42.672;23.354;2022-09-09T01:15:49;94566.75;;;20.93;62.19
11692;BME280;33659;42.672;23.354;2022-09-09T01:18:21;94569.84;;;20.84;61.73
11692;BME280;33659;42.672;23.354;2022-09-09T01:20:57;94561.56;;;20.75;62.59
11692;BME280;33659;42.672;23.354;2022-09-09T01:23:37;94574.47;;;20.73;62.69
11692;BME280;33659;42.672;23.354;2022-09-09T01:26:26;94571.41;;;20.78;63.72
11692;BME280;33659;42.672;23.354;2022-09-09T01:28:53;94571.00;;;20.87;64.03
11692;BME280;33659;42.672;23.354;2022-09-09T01:31:23;94558.78;;;20.96;63.10
11692;BME280;33659;42.672;23.354;2022-09-09T01:33:52;94557.25;;;21.02;63.05
11692;BME280;33659;42.672;23.354;2022-09-09T01:36:26;94566.72;;;21.03;62.67
11692;BME280;33659;42.672;23.354;2022-09-09T01:38:56;94572.03;;;21.03;63.05
11692;BME280;33659;42.672;23.354;2022-09-09T01:41:23;94577.28;;;21.10;62.97
11692;BME280;33659;42.672;23.354;2022-09-09T01:43:53;94582.94;;;21.16;62.15
11692;BME280;33659;42.672;23.354;2022-09-09T01:46:21;94566.25;;;21.19;61.51
11692;BME280;33659;42.672;23.354;2022-09-09T01:48:50;94572.66;;;21.22;61.65
11692;BME280;33659;42.672;23.354;2022-09-09T01:51:17;94580.63;;;21.29;61.33
11692;BME280;33659;42.672;23.354;2022-09-09T01:53:45;94581.72;;;21.35;61.17
11692;BME280;33659;42.672;23.354;2022-09-09T01:56:22;94588.88;;;21.38;60.85
11692;BME280;33659;42.672;23.354;2022-09-09T01:59:07;94588.47;;;21.43;61.03
11692;BME280;33659;42.672;23.354;2022-09-09T02:01:53;94597.97;;;21.44;61.23
11692;BME280;33659;42.672;23.354;2022-09-09T02:04:32;94588.88;;;21.45;61.40
11692;BME280;33659;42.672;23.354;2022-09-09T02:07:02;94586.56;;;21.47;61.05
11692;BME280;33659;42.672;23.354;2022-09-09T02:09:32;94579.41;;;21.41;60.47
11692;BME280;33659;42.672;23.354;2022-09-09T02:12:05;94582.47;;;21.35;60.62
11692;BME280;33659;42.672;23.354;2022-09-09T02:14:39;94577.50;;;21.38;60.80
11692;BME280;33659;42.672;23.354;2022-09-09T02:17:09;94571.06;;;21.39;60.78
11692;BME280;33659;42.672;23.354;2022-09-09T02:19:39;94550.97;;;21.34;61.04
11692;BME280;33659;42.672;23.354;2022-09-09T02:22:09;94555.59;;;21.23;60.96
11692;BME280;33659;42.672;23.354;2022-09-09T02:24:37;94556.00;;;21.18;61.09
11692;BME280;33659;42.672;23.354;2022-09-09T02:27:06;94559.03;;;21.16;61.60
11692;BME280;33659;42.672;23.354;2022-09-09T02:29:38;94569.28;;;21.18;61.41
11692;BME280;33659;42.672;23.354;2022-09-09T02:32:10;94573.06;;;21.17;61.56
11692;BME280;33659;42.672;23.354;2022-09-09T02:34:42;94566.25;;;21.19;61.34
11692;BME280;33659;42.672;23.354;2022-09-09T02:37:10;94571.88;;;21.25;61.28
11692;BME280;33659;42.672;23.354;2022-09-09T02:39:38;94565.44;;;21.26;61.42
11692;BME280;33659;42.672;23.354;2022-09-09T02:42:05;94571.50;;;21.26;61.20
11692;BME280;33659;42.672;23.354;2022-09-09T02:44:33;94581.38;;;21.26;61.49
11692;BME280;33659;42.672;23.354;2022-09-09T02:47:10;94577.59;;;21.23;61.34
11692;BME280;33659;42.672;23.354;2022-09-09T02:49:45;94585.59;;;21.20;61.04
11692;BME280;33659;42.672;23.354;2022-09-09T02:52:20;94592.06;;;21.15;61.18
11692;BME280;33659;42.672;23.354;2022-09-09T02:54:51;94586.75;;;21.12;61.36
11692;BME280;33659;42.672;23.354;2022-09-09T02:57:25;94585.31;;;21.03;61.24
11692;BME280;33659;42.672;23.354;2022-09-09T02:59:53;94575.09;;;20.98;61.27
11692;BME280;33659;42.672;23.354;2022-09-09T03:02:24;94577.03;;;20.94;61.33
11692;BME280;33659;42.672;23.354;2022-09-09T03:04:51;94581.63;;;20.87;61.64
11692;BME280;33659;42.672;23.354;2022-09-09T03:07:18;94577.50;;;20.75;61.76
11692;BME280;33659;42.672;23.354;2022-09-09T03:09:45;94593.44;;;20.71;61.57
11692;BME280;33659;42.672;23.354;2022-09-09T03:12:12;94583.59;;;20.65;61.20
11692;BME280;33659;42.672;23.354;2022-09-09T03:14:38;94578.69;;;20.63;60.95
11692;BME280;33659;42.672;23.354;2022-09-09T03:17:05;94590.78;;;20.71;60.92
11692;BME280;33659;42.672;23.354;2022-09-09T03:19:34;94590.78;;;20.71;61.74
11692;BME280;33659;42.672;23.354;2022-09-09T03:22:03;94590.38;;;20.73;62.20
11692;BME280;33659;42.672;23.354;2022-09-09T03:24:30;94586.94;;;20.79;62.17
11692;BME280;33659;42.672;23.354;2022-09-09T03:26:57;94575.94;;;20.81;62.29
11692;BME280;33659;42.672;23.354;2022-09-09T03:29:23;94582.03;;;20.81;62.25
11692;BME280;33659;42.672;23.354;2022-09-09T03:31:50;94585.03;;;20.80;62.21
11692;BME280;33659;42.672;23.354;2022-09-09T03:34:17;94591.09;;;20.84;62.06
11692;BME280;33659;42.672;23.354;2022-09-09T03:36:45;94589.19;;;20.85;62.05
11692;BME280;33659;42.672;23.354;2022-09-09T03:39:13;94582.38;;;20.80;62.32
11692;BME280;33659;42.672;23.354;2022-09-09T03:41:40;94571.09;;;20.69;62.40
11692;BME280;33659;42.672;23.354;2022-09-09T03:44:07;94581.66;;;20.76;62.50
11692;BME280;33659;42.672;23.354;2022-09-09T03:46:34;94574.84;;;20.75;62.84
11692;BME280;33659;42.672;23.354;2022-09-09T03:49:00;94581.31;;;20.74;62.76
11692;BME280;33659;42.672;23.354;2022-09-09T03:51:27;94589.25;;;20.74;63.06
11692;BME280;33659;42.672;23.354;2022-09-09T03:53:55;94590.78;;;20.75;63.18
11692;BME280;33659;42.672;23.354;2022-09-09T03:56:23;94589.97;;;20.78;62.80
11692;BME280;33659;42.672;23.354;2022-09-09T03:58:50;94596.06;;;20.75;62.88
11692;BME280;33659;42.672;23.354;2022-09-09T04:01:16;94593.03;;;20.76;63.10
11692;BME280;33659;42.672;23.354;2022-09-09T04:03:43;94601.34;;;20.78;62.87
11692;BME280;33659;42.672;23.354;2022-09-09T04:06:12;94601.34;;;20.82;62.87
11692;BME280;33659;42.672;23.354;2022-09-09T04:08:40;94596.75;;;20.86;62.76
11692;BME280;33659;42.672;23.354;2022-09-09T04:11:09;94590.69;;;20.86;62.77
11692;BME280;33659;42.672;23.354;2022-09-09T04:13:37;94591.09;;;20.84;62.65
11692;BME280;33659;42.672;23.354;2022-09-09T04:16:04;94583.50;;;20.86;62.66
11692;BME280;33659;42.672;23.354;2022-09-09T04:18:32;94585.00;;;20.91;62.57
11692;BME280;33659;42.672;23.354;2022-09-09T04:20:59;94591.47;;;20.86;62.68
11692;BME280;33659;42.672;23.354;2022-09-09T04:23:28;94585.75;;;20.91;62.57
11692;BME280;33659;42.672;23.354;2022-09-09T04:25:56;94592.16;;;20.97;62.22
11692;BME280;33659;42.672;23.354;2022-09-09T04:28:27;94588.34;;;21.02;62.34
11692;BME280;33659;42.672;23.354;2022-09-09T04:30:54;94590.66;;;21.00;61.58
11692;BME280;33659;42.672;23.354;2022-09-09T04:33:23;94594.81;;;20.97;60.91
11692;BME280;33659;42.672;23.354;2022-09-09T04:35:52;94595.97;;;21.00;60.04
11692;BME280;33659;42.672;23.354;2022-09-09T04:38:19;94591.03;;;20.95;59.67
11692;BME280;33659;42.672;23.354;2022-09-09T04:40:49;94600.13;;;20.97;59.82
11692;BME280;33659;42.672;23.354;2022-09-09T04:43:17;94594.50;;;20.88;59.95
11692;BME280;33659;42.672;23.354;2022-09-09T04:45:47;94599.78;;;20.95;58.72
11692;BME280;33659;42.672;23.354;2022-09-09T04:48:15;94604.47;;;20.63;60.13
11692;BME280;33659;42.672;23.354;2022-09-09T04:50:41;94596.59;;;20.23;62.15
11692;BME280;33659;42.672;23.354;2022-09-09T04:53:08;94592.50;;;19.94;63.83
11692;BME280;33659;42.672;23.354;2022-09-09T04:55:35;94574.72;;;19.66;64.51
11692;BME280;33659;42.672;23.354;2022-09-09T04:58:03;94571.31;;;19.65;64.92
11692;BME280;33659;42.672;23.354;2022-09-09T05:00:31;94588.72;;;19.88;64.80
11692;BME280;33659;42.672;23.354;2022-09-09T05:03:02;94586.03;;;20.02;64.78
11692;BME280;33659;42.672;23.354;2022-09-09T05:05:30;94586.00;;;20.23;64.37
11692;BME280;33659;42.672;23.354;2022-09-09T05:08:01;94582.53;;;20.41;63.79
11692;BME280;33659;42.672;23.354;2022-09-09T05:10:28;94568.13;;;20.45;63.71
11692;BME280;33659;42.672;23.354;2022-09-09T05:12:54;94563.53;;;20.60;63.66
11692;BME280;33659;42.672;23.354;2022-09-09T05:15:22;94572.22;;;20.64;63.10
11692;BME280;33659;42.672;23.354;2022-09-09T05:17:48;94583.91;;;20.81;62.88
11692;BME280;33659;42.672;23.354;2022-09-09T05:20:19;94581.56;;;20.94;62.39
11692;BME280;33659;42.672;23.354;2022-09-09T05:22:46;94582.25;;;21.05;61.94
11692;BME280;33659;42.672;23.354;2022-09-09T05:25:13;94575.81;;;21.06;61.75
11692;BME280;33659;42.672;23.354;2022-09-09T05:27:40;94565.91;;;21.14;61.58
11692;BME280;33659;42.672;23.354;2022-09-09T05:30:08;94571.50;;;21.30;60.91
11692;BME280;33659;42.672;23.354;2022-09-09T05:32:35;94573.69;;;21.42;60.46
11692;BME280;33659;42.672;23.354;2022-09-09T05:35:01;94571.31;;;21.55;60.24
11692;BME280;33659;42.672;23.354;2022-09-09T05:37:30;94568.53;;;21.69;59.26
11692;BME280;33659;42.672;23.354;2022-09-09T05:39:57;94574.91;;;21.79;59.27
11692;BME280;33659;42.672;23.354;2022-09-09T05:42:24;94573.69;;;21.90;58.54
11692;BME280;33659;42.672;23.354;2022-09-09T05:44:51;94579.69;;;21.98;58.14
11692;BME280;33659;42.672;23.354;2022-09-09T05:47:19;94578.06;;;22.08;58.34
11692;BME280;33659;42.672;23.354;2022-09-09T05:49:46;94584.47;;;22.17;58.61
11692;BME280;33659;42.672;23.354;2022-09-09T05:52:12;94589.22;;;22.33;57.73
11692;BME280;33659;42.672;23.354;2022-09-09T05:54:40;94584.56;;;22.41;56.37
11692;BME280;33659;42.672;23.354;2022-09-09T05:57:08;94567.59;;;22.31;55.18
11692;BME280;33659;42.672;23.354;2022-09-09T05:59:35;94583.47;;;22.38;55.29
11692;BME280;33659;42.672;23.354;2022-09-09T06:02:01;94586.09;;;22.42;55.35
11692;BME280;33659;42.672;23.354;2022-09-09T06:04:28;94585.63;;;22.47;55.38
11692;BME280;33659;42.672;23.354;2022-09-09T06:06:55;94587.88;;;22.52;54.48
11692;BME280;33659;42.672;23.354;2022-09-09T06:09:22;94599.31;;;22.49;55.56
11692;BME280;33659;42.672;23.354;2022-09-09T06:11:50;94596.28;;;22.47;55.77
11692;BME280;33659;42.672;23.354;2022-09-09T06:14:17;94598.59;;;22.45;55.72
11692;BME280;33659;42.672;23.354;2022-09-09T06:16:44;94598.91;;;22.54;55.91
11692;BME280;33659;42.672;23.354;2022-09-09T06:19:11;94587.41;;;22.61;55.48
11692;BME280;33659;42.672;23.354;2022-09-09T06:21:39;94598.75;;;22.65;54.77
11692;BME280;33659;42.672;23.354;2022-09-09T06:24:07;94593.00;;;22.70;54.44
11692;BME280;33659;42.672;23.354;2022-09-09T06:26:35;94595.63;;;22.74;54.69
11692;BME280;33659;42.672;23.354;2022-09-09T06:29:04;94599.78;;;22.75;54.27
11692;BME280;33659;42.672;23.354;2022-09-09T06:31:33;94598.13;;;22.84;54.05
11692;BME280;33659;42.672;23.354;2022-09-09T06:34:04;94594.72;;;22.84;53.88
11692;BME280;33659;42.672;23.354;2022-09-09T06:36:32;94592.81;;;22.88;53.16
11692;BME280;33659;42.672;23.354;2022-09-09T06:38:59;94576.19;;;22.77;53.16
11692;BME280;33659;42.672;23.354;2022-09-09T06:41:28;94579.09;;;22.89;53.09
11692;BME280;33659;42.672;23.354;2022-09-09T06:43:55;94588.13;;;22.95;53.13
11692;BME280;33659;42.672;23.354;2022-09-09T06:46:24;94581.72;;;22.93;52.33
11692;BME280;33659;42.672;23.354;2022-09-09T06:48:54;94583.66;;;22.85;53.38
11692;BME280;33659;42.672;23.354;2022-09-09T06:51:24;94577.59;;;22.85;52.25
11692;BME280;33659;42.672;23.354;2022-09-09T06:53:52;94595.53;;;22.81;52.35
11692;BME280;33659;42.672;23.354;2022-09-09T06:56:21;94603.88;;;22.86;51.83
11692;BME280;33659;42.672;23.354;2022-09-09T06:58:49;94598.53;;;22.86;50.65
11692;BME280;33659;42.672;23.354;2022-09-09T07:01:18;94607.63;;;22.89;50.99
11692;BME280;33659;42.672;23.354;2022-09-09T07:03:48;94603.03;;;22.93;51.08
11692;BME280;33659;42.672;23.354;2022-09-09T07:06:17;94612.84;;;22.96;50.89
11692;BME280;33659;42.672;23.354;2022-09-09T07:08:48;94598.38;;;22.97;50.73
11692;BME280;33659;42.672;23.354;2022-09-09T07:11:16;94604.06;;;22.99;51.27
11692;BME280;33659;42.672;23.354;2022-09-09T07:13:42;94597.69;;;22.93;51.27
11692;BME280;33659;42.672;23.354;2022-09-09T07:16:11;94588.63;;;22.87;51.17
11692;BME280;33659;42.672;23.354;2022-09-09T07:18:39;94595.47;;;22.88;51.62
11692;BME280;33659;42.672;23.354;2022-09-09T07:21:09;94589.75;;;22.89;51.91
11692;BME280;33659;42.672;23.354;2022-09-09T07:23:37;94599.94;;;22.94;51.52
11692;BME280;33659;42.672;23.354;2022-09-09T07:26:08;94589.69;;;22.93;51.81
11692;BME280;33659;42.672;23.354;2022-09-09T07:28:35;94591.66;;;22.89;51.91
11692;BME280;33659;42.672;23.354;2022-09-09T07:31:02;94591.31;;;22.87;51.91
11692;BME280;33659;42.672;23.354;2022-09-09T07:33:30;94594.88;;;23.04;52.06
11692;BME280;33659;42.672;23.354;2022-09-09T07:36:03;94587.09;;;23.16;51.44
11692;BME280;33659;42.672;23.354;2022-09-09T07:38:31;94578.97;;;23.23;50.88
11692;BME280;33659;42.672;23.354;2022-09-09T07:41:03;94583.97;;;23.21;50.62
11692;BME280;33659;42.672;23.354;2022-09-09T07:43:30;94587.16;;;23.13;50.09
11692;BME280;33659;42.672;23.354;2022-09-09T07:45:57;94591.66;;;23.16;50.69
11692;BME280;33659;42.672;23.354;2022-09-09T07:48:24;94591.53;;;23.27;50.31
11692;BME280;33659;42.672;23.354;2022-09-09T07:50:51;94593.97;;;23.41;49.33
11692;BME280;33659;42.672;23.354;2022-09-09T07:53:17;94601.44;;;23.49;49.87
11692;BME280;33659;42.672;23.354;2022-09-09T07:55:46;94599.63;;;23.70;50.54
11692;BME280;33659;42.672;23.354;2022-09-09T07:58:13;94589.84;;;23.87;48.27
11692;BME280;33659;42.672;23.354;2022-09-09T08:00:39;94598.72;;;24.03;48.08
11692;BME280;33659;42.672;23.354;2022-09-09T08:03:08;94598.03;;;24.19;47.69
11692;BME280;33659;42.672;23.354;2022-09-09T08:05:35;94585.72;;;24.25;47.29
11692;BME280;33659;42.672;23.354;2022-09-09T08:08:04;94586.00;;;24.35;47.91
11692;BME280;33659;42.672;23.354;2022-09-09T08:10:31;94591.34;;;24.35;47.17
11692;BME280;33659;42.672;23.354;2022-09-09T08:12:59;94596.53;;;24.42;47.24
11692;BME280;33659;42.672;23.354;2022-09-09T08:15:26;94586.88;;;24.48;47.39
11692;BME280;33659;42.672;23.354;2022-09-09T08:17:53;94563.56;;;24.28;47.09
11692;BME280;33659;42.672;23.354;2022-09-09T08:20:22;94596.25;;;24.56;46.81
11692;BME280;33659;42.672;23.354;2022-09-09T08:22:49;94582.69;;;24.47;46.57
11692;BME280;33659;42.672;23.354;2022-09-09T08:25:16;94590.78;;;24.43;46.91
11692;BME280;33659;42.672;23.354;2022-09-09T08:27:42;94592.88;;;24.52;48.57
11692;BME280;33659;42.672;23.354;2022-09-09T08:30:11;94588.56;;;24.58;48.45
11692;BME280;33659;42.672;23.354;2022-09-09T08:32:39;94583.78;;;24.69;47.85
11692;BME280;33659;42.672;23.354;2022-09-09T08:35:07;94575.91;;;24.62;47.19
11692;BME280;33659;42.672;23.354;2022-09-09T08:37:33;94578.22;;;24.60;47.65
11692;BME280;33659;42.672;23.354;2022-09-09T08:40:00;94586.25;;;24.60;47.68
11692;BME280;33659;42.672;23.354;2022-09-09T08:42:35;94589.94;;;24.66;48.23
11692;BME280;33659;42.672;23.354;2022-09-09T08:45:23;94580.69;;;24.71;48.20
11692;BME280;33659;42.672;23.354;2022-09-09T08:48:01;94576.09;;;24.71;48.10
11692;BME280;33659;42.672;23.354;2022-09-09T08:50:34;94564.66;;;24.71;47.95
11692;BME280;33659;42.672;23.354;2022-09-09T08:53:05;94567.91;;;24.62;47.99
11692;BME280;33659;42.672;23.354;2022-09-09T08:55:41;94568.84;;;24.72;48.10
11692;BME280;33659;42.672;23.354;2022-09-09T08:58:15;94568.22;;;24.84;47.66
11692;BME280;33659;42.672;23.354;2022-09-09T09:00:57;94568.00;;;24.95;47.99
11692;BME280;33659;42.672;23.354;2022-09-09T09:03:34;94567.38;;;25.07;47.80
11692;BME280;33659;42.672;23.354;2022-09-09T09:06:08;94566.03;;;25.15;47.08
11692;BME280;33659;42.672;23.354;2022-09-09T09:08:45;94561.66;;;25.25;48.61
11692;BME280;33659;42.672;23.354;2022-09-09T09:11:17;94571.25;;;25.38;47.01
11692;BME280;33659;42.672;23.354;2022-09-09T09:13:47;94562.22;;;25.49;46.44
11692;BME280;33659;42.672;23.354;2022-09-09T09:16:23;94574.75;;;25.68;46.37
11692;BME280;33659;42.672;23.354;2022-09-09T09:18:52;94570.66;;;25.80;46.52
11692;BME280;33659;42.672;23.354;2022-09-09T09:21:24;94566.41;;;25.82;46.06
11692;BME280;33659;42.672;23.354;2022-09-09T09:23:56;94564.97;;;25.61;46.01
11692;BME280;33659;42.672;23.354;2022-09-09T09:26:25;94565.56;;;25.53;45.94
11692;BME280;33659;42.672;23.354;2022-09-09T09:28:56;94561.78;;;25.50;46.07
11692;BME280;33659;42.672;23.354;2022-09-09T09:31:24;94558.03;;;25.48;46.62
11692;BME280;33659;42.672;23.354;2022-09-09T09:33:53;94568.91;;;25.57;46.57
11692;BME280;33659;42.672;23.354;2022-09-09T09:36:25;94569.31;;;25.55;46.39
11692;BME280;33659;42.672;23.354;2022-09-09T09:39:01;94564.41;;;25.54;46.56
11692;BME280;33659;42.672;23.354;2022-09-09T09:41:30;94558.63;;;25.55;46.39
11692;BME280;33659;42.672;23.354;2022-09-09T09:43:58;94551.53;;;25.65;46.08
11692;BME280;33659;42.672;23.354;2022-09-09T09:46:27;94547.25;;;25.84;46.02
11692;BME280;33659;42.672;23.354;2022-09-09T09:48:58;94547.56;;;26.02;46.35
11692;BME280;33659;42.672;23.354;2022-09-09T09:51:26;94541.59;;;26.11;45.85
11692;BME280;33659;42.672;23.354;2022-09-09T09:53:53;94542.03;;;26.09;44.89
11692;BME280;33659;42.672;23.354;2022-09-09T09:56:27;94547.88;;;26.04;45.81
11692;BME280;33659;42.672;23.354;2022-09-09T09:58:55;94532.56;;;26.05;45.60
11692;BME280;33659;42.672;23.354;2022-09-09T10:01:23;94534.41;;;26.08;46.01
11692;BME280;33659;42.672;23.354;2022-09-09T10:03:53;94538.50;;;26.12;45.45
11692;BME280;33659;42.672;23.354;2022-09-09T10:06:29;94535.63;;;26.19;45.24
11692;BME280;33659;42.672;23.354;2022-09-09T10:08:57;94538.72;;;26.18;45.47
11692;BME280;33659;42.672;23.354;2022-09-09T10:11:43;94536.91;;;26.15;45.74
11692;BME280;33659;42.672;23.354;2022-09-09T10:14:18;94548.44;;;26.12;45.41
11692;BME280;33659;42.672;23.354;2022-09-09T10:16:59;94542.44;;;26.08;45.36
11692;BME280;33659;42.672;23.354;2022-09-09T10:19:34;94548.72;;;26.01;45.91
11692;BME280;33659;42.672;23.354;2022-09-09T10:22:22;94552.00;;;25.92;46.30
11692;BME280;33659;42.672;23.354;2022-09-09T10:25:04;94552.50;;;25.87;45.97
11692;BME280;33659;42.672;23.354;2022-09-09T10:27:47;94550.78;;;25.81;46.07
11692;BME280;33659;42.672;23.354;2022-09-09T10:30:18;94553.53;;;25.77;46.82
11692;BME280;33659;42.672;23.354;2022-09-09T10:32:48;94557.94;;;25.67;46.87
11692;BME280;33659;42.672;23.354;2022-09-09T10:35:29;94555.69;;;25.66;46.77
11692;BME280;33659;42.672;23.354;2022-09-09T10:38:14;94566.81;;;25.64;46.98
11692;BME280;33659;42.672;23.354;2022-09-09T10:40:47;94544.00;;;25.44;47.02
11692;BME280;33659;42.672;23.354;2022-09-09T10:43:32;94554.88;;;25.53;47.07
11692;BME280;33659;42.672;23.354;2022-09-09T10:46:08;94540.84;;;25.32;47.93
11692;BME280;33659;42.672;23.354;2022-09-09T10:48:49;94557.47;;;25.40;47.68
11692;BME280;33659;42.672;23.354;2022-09-09T10:51:29;94558.22;;;25.41;47.65
11692;BME280;33659;42.672;23.354;2022-09-09T10:54:11;94555.53;;;25.41;47.16
11692;BME280;33659;42.672;23.354;2022-09-09T10:56:40;94555.97;;;25.39;47.51
11692;BME280;33659;42.672;23.354;2022-09-09T10:59:13;94552.94;;;25.37;47.77
11692;BME280;33659;42.672;23.354;2022-09-09T11:01:43;94550.63;;;25.39;47.95
11692;BME280;33659;42.672;23.354;2022-09-09T11:04:16;94553.28;;;25.39;48.21
11692;BME280;33659;42.672;23.354;2022-09-09T11:06:48;94563.13;;;25.42;48.21
11692;BME280;33659;42.672;23.354;2022-09-09T11:09:21;94556.78;;;25.36;48.90
11692;BME280;33659;42.672;23.354;2022-09-09T11:11:53;94557.69;;;25.29;48.68
11692;BME280;33659;42.672;23.354;2022-09-09T11:14:25;94554.59;;;25.31;48.77
11692;BME280;33659;42.672;23.354;2022-09-09T11:16:57;94555.38;;;25.31;48.85
11692;BME280;33659;42.672;23.354;2022-09-09T11:19:28;94555.59;;;25.37;49.01
11692;BME280;33659;42.672;23.354;2022-09-09T11:22:00;94546.34;;;25.42;48.93
11692;BME280;33659;42.672;23.354;2022-09-09T11:24:33;94543.16;;;25.47;48.54
11692;BME280;33659;42.672;23.354;2022-09-09T11:27:08;94535.31;;;25.56;48.31
11692;BME280;33659;42.672;23.354;2022-09-09T11:36:22;94518.91;;;25.70;48.94
11692;BME280;33659;42.672;23.354;2022-09-09T11:38:57;94516.25;;;25.70;49.06
11692;BME280;33659;42.672;23.354;2022-09-09T11:41:33;94507.72;;;25.75;49.86
11692;BME280;33659;42.672;23.354;2022-09-09T11:44:10;94502.28;;;25.79;48.82
11692;BME280;33659;42.672;23.354;2022-09-09T11:46:39;94502.41;;;25.88;48.76
11692;BME280;33659;42.672;23.354;2022-09-09T11:49:26;94493.81;;;25.97;48.92
11692;BME280;33659;42.672;23.354;2022-09-09T11:51:53;94482.16;;;26.03;48.51
11692;BME280;33659;42.672;23.354;2022-09-09T11:54:30;94464.81;;;26.08;48.85
11692;BME280;33659;42.672;23.354;2022-09-09T11:56:57;94462.13;;;26.08;48.41
11692;BME280;33659;42.672;23.354;2022-09-09T11:59:26;94464.81;;;26.08;48.55
11692;BME280;33659;42.672;23.354;2022-09-09T12:01:56;94470.81;;;26.12;48.75
11692;BME280;33659;42.672;23.354;2022-09-09T12:04:35;94475.78;;;26.26;48.39
11692;BME280;33659;42.672;23.354;2022-09-09T12:07:23;94460.59;;;26.36;47.51
11692;BME280;33659;42.672;23.354;2022-09-09T12:09:52;94477.25;;;26.69;47.43
11692;BME280;33659;42.672;23.354;2022-09-09T12:12:30;94476.16;;;26.79;46.88
11692;BME280;33659;42.672;23.354;2022-09-09T12:17:47;94469.44;;;26.87;47.08
11692;BME280;33659;42.672;23.354;2022-09-09T12:20:17;94457.22;;;26.99;47.37
11692;BME280;33659;42.672;23.354;2022-09-09T12:23:14;94457.00;;;27.19;46.49
11692;BME280;33659;42.672;23.354;2022-09-09T12:25:57;94456.41;;;27.24;46.48
11692;BME280;33659;42.672;23.354;2022-09-09T12:28:39;94457.53;;;27.14;46.79
11692;BME280;33659;42.672;23.354;2022-09-09T12:31:12;94452.91;;;27.14;46.94
11692;BME280;33659;42.672;23.354;2022-09-09T12:33:43;94450.84;;;27.31;47.12
11692;BME280;33659;42.672;23.354;2022-09-09T12:36:16;94440.84;;;27.44;46.05
11692;BME280;33659;42.672;23.354;2022-09-09T12:38:45;94440.25;;;27.49;46.60
11692;BME280;33659;42.672;23.354;2022-09-09T12:41:23;94428.00;;;27.26;46.71
11692;BME280;33659;42.672;23.354;2022-09-09T12:43:51;94416.88;;;27.15;47.18
11692;BME280;33659;42.672;23.354;2022-09-09T12:46:34;94435.44;;;27.10;47.48
11692;BME280;33659;42.672;23.354;2022-09-09T12:49:03;94434.81;;;27.06;47.83
11692;BME280;33659;42.672;23.354;2022-09-09T12:51:32;94431.47;;;27.02;48.23
11692;BME280;33659;42.672;23.354;2022-09-09T12:53:59;94431.16;;;26.99;48.43
11692;BME280;33659;42.672;23.354;2022-09-09T12:56:30;94429.66;;;26.98;48.56
11692;BME280;33659;42.672;23.354;2022-09-09T12:58:58;94421.06;;;27.04;48.80
11692;BME280;33659;42.672;23.354;2022-09-09T13:01:28;94415.38;;;27.14;48.38
11692;BME280;33659;42.672;23.354;2022-09-09T13:03:56;94421.53;;;27.37;48.49
11692;BME280;33659;42.672;23.354;2022-09-09T13:06:25;94403.78;;;27.52;48.04
11692;BME280;33659;42.672;23.354;2022-09-09T13:08:53;94409.34;;;27.58;47.27
11692;BME280;33659;42.672;23.354;2022-09-09T13:11:23;94404.09;;;27.54;47.49
11692;BME280;33659;42.672;23.354;2022-09-09T13:13:56;94412.13;;;27.54;47.36
11692;BME280;33659;42.672;23.354;2022-09-09T13:16:26;94418.81;;;27.49;47.08
11692;BME280;33659;42.672;23.354;2022-09-09T13:18:56;94411.34;;;27.44;47.22